Time;durP1;ratioP1;P1;durP2;ratioP2;P2;SDS_P1;SDS_P2;PMS_P1;PMS_P2;Temp;Humidity;BMP_temperature;BMP_pressure;BME280_temperature;BME280_humidity;BME280_pressure;Samples;Min_cycle;Max_cycle;Signal;HPM_P1;HPM_P2
2023/02/13 00:02:56;;;;;;;10.07;7.10;;;;;;;0.84;75.61;99803.50;6326059;28;20837;-35
2023/02/13 00:05:58;;;;;;;10.87;6.27;;;;;;;0.81;75.41;99798.50;6325517;28;20598;-35
2023/02/13 00:09:01;;;;;;;10.67;6.60;;;;;;;0.73;75.02;99793.03;6351151;27;20664;-34
2023/02/13 00:12:07;;;;;;;8.40;5.77;;;;;;;0.59;75.33;99796.81;6353254;27;20619;-34
2023/02/13 00:15:09;;;;;;;7.33;5.17;;;;;;;0.34;75.24;99757.81;6352844;27;20741;-34
2023/02/13 00:18:11;;;;;;;9.63;6.80;;;;;;;0.50;75.54;99810.69;6341103;27;20671;-34
2023/02/13 00:21:13;;;;;;;8.90;5.97;;;;;;;0.49;75.31;99804.59;6338382;27;20599;-35
2023/02/13 00:24:15;;;;;;;9.57;5.90;;;;;;;0.44;75.25;99803.28;6341282;27;20304;-35
2023/02/13 00:27:17;;;;;;;9.00;6.67;;;;;;;0.23;75.77;99798.84;6348741;27;20243;-35
2023/02/13 00:30:20;;;;;;;10.13;6.37;;;;;;;0.19;75.72;99801.81;6334517;27;20644;-34
2023/02/13 00:33:22;;;;;;;9.30;6.53;;;;;;;0.19;75.90;99799.19;6352478;27;20300;-35
2023/02/13 00:36:25;;;;;;;12.17;6.40;;;;;;;0.24;75.68;99804.91;6312103;28;20230;-35
2023/02/13 00:39:27;;;;;;;8.67;6.10;;;;;;;0.22;75.92;99807.66;6327970;27;20224;-35
2023/02/13 00:42:29;;;;;;;10.03;6.63;;;;;;;0.03;75.85;99788.28;6316791;27;20708;-34
2023/02/13 00:45:31;;;;;;;10.77;6.47;;;;;;;0.16;75.87;99817.81;6346807;27;20855;-35
2023/02/13 00:48:34;;;;;;;11.80;7.27;;;;;;;0.09;76.21;99814.84;6334889;27;20604;-35
2023/02/13 00:51:36;;;;;;;8.97;6.67;;;;;;;-0.01;76.16;99800.78;6347724;27;20729;-34
2023/02/13 00:54:38;;;;;;;11.40;7.37;;;;;;;-0.06;76.10;99818.66;6328639;27;20663;-35
2023/02/13 00:57:40;;;;;;;11.77;6.93;;;;;;;-0.11;76.59;99807.72;6349852;28;20244;-35
2023/02/13 01:00:48;;;;;;;11.87;7.50;;;;;;;-0.15;76.96;99822.00;6334367;28;20701;-35
2023/02/13 01:03:50;;;;;;;11.30;7.03;;;;;;;-0.06;76.57;99822.13;6328745;28;20233;-35
2023/02/13 01:06:52;;;;;;;11.30;7.20;;;;;;;-0.02;76.79;99827.97;6330955;28;20245;-34
2023/02/13 01:09:54;;;;;;;13.23;7.53;;;;;;;0.03;76.39;99817.13;6328416;28;20610;-35
2023/02/13 01:12:56;;;;;;;10.47;7.57;;;;;;;0.08;76.72;99810.56;6338081;28;20607;-34
2023/02/13 01:15:58;;;;;;;10.83;7.40;;;;;;;0.12;77.12;99808.53;6333154;28;20278;-34
2023/02/13 01:19:00;;;;;;;13.00;7.97;;;;;;;0.19;76.99;99807.91;6332286;28;20217;-36
2023/02/13 01:22:07;;;;;;;15.93;8.23;;;;;;;0.20;77.17;99809.59;6351797;28;20323;-35
2023/02/13 01:25:09;;;;;;;12.10;8.17;;;;;;;0.22;77.25;99805.03;6351635;28;20605;-34
2023/02/13 01:28:11;;;;;;;14.50;8.90;;;;;;;0.28;77.21;99811.56;6331131;28;20228;-35
2023/02/13 01:31:13;;;;;;;10.83;7.70;;;;;;;-0.03;77.07;99759.00;6321497;28;20640;-35
2023/02/13 01:34:15;;;;;;;12.47;8.33;;;;;;;0.37;76.91;99810.00;6311450;28;20226;-35
2023/02/13 01:37:18;;;;;;;12.40;8.17;;;;;;;0.37;76.96;99810.00;6313953;28;20244;-35
2023/02/13 01:40:20;;;;;;;15.70;8.47;;;;;;;0.14;76.75;99772.53;6326256;28;20246;-35
2023/02/13 01:43:23;;;;;;;11.70;8.00;;;;;;;0.38;77.23;99809.03;6308239;28;20721;-35
2023/02/13 01:46:36;;;;;;;12.03;8.47;;;;;;;0.34;77.37;99815.47;6302879;28;20231;-34
2023/02/13 01:49:40;;;;;;;12.73;7.77;;;;;;;0.40;77.50;99804.53;6305764;28;20233;-34
2023/02/13 01:52:49;;;;;;;15.00;9.03;;;;;;;0.47;77.26;99803.06;6330936;28;20606;-35
2023/02/13 01:56:16;;;;;;;12.20;8.07;;;;;;;0.48;77.40;99799.47;6331110;28;20592;-34
2023/02/13 01:59:25;;;;;;;13.17;8.10;;;;;;;0.48;77.09;99802.09;6329057;28;20231;-34
2023/02/13 02:02:29;;;;;;;10.80;7.80;;;;;;;0.55;77.09;99791.94;6312486;28;20702;-35
2023/02/13 02:05:35;;;;;;;13.30;8.90;;;;;;;0.60;77.13;99798.47;6281971;28;20310;-35
2023/02/13 02:08:37;;;;;;;12.73;8.50;;;;;;;0.55;77.35;99800.66;6296474;28;20310;-34
2023/02/13 02:12:12;;;;;;;14.50;9.40;;;;;;;0.55;77.34;99798.03;6330240;28;20267;-34
2023/02/13 02:15:15;;;;;;;11.43;7.90;;;;;;;0.61;77.51;99799.31;6306289;28;20229;-34
2023/02/13 02:18:20;;;;;;;17.63;7.90;;;;;;;0.59;77.55;99791.59;6307662;28;20227;-35
2023/02/13 02:21:44;;;;;;;10.50;7.27;;;;;;;0.63;77.65;99792.97;6302039;28;20229;-34
2023/02/13 02:25:27;;;;;;;11.57;7.27;;;;;;;0.70;77.31;99791.53;6291301;28;20342;-34
2023/02/13 02:28:48;;;;;;;11.97;7.37;;;;;;;0.73;77.54;99787.78;6304386;28;20234;-35
2023/02/13 02:32:28;;;;;;;9.03;6.80;;;;;;;0.81;77.57;99782.75;6297972;27;20225;-35
2023/02/13 02:35:51;;;;;;;13.83;8.70;;;;;;;0.44;77.50;99712.38;6330881;27;20231;-35
2023/02/13 02:39:23;;;;;;;16.40;9.40;;;;;;;0.84;77.92;99781.66;6301579;27;20218;-35
2023/02/13 02:42:42;;;;;;;11.77;8.07;;;;;;;0.78;78.00;99760.22;6354559;27;20712;-34
2023/02/13 02:45:51;;;;;;;12.90;7.37;;;;;;;0.97;78.07;99774.44;6317825;27;20236;-35
2023/02/13 02:52:45;;;;;;;11.67;7.63;;;;;;;1.10;78.03;99764.56;6332792;27;20251;-35
2023/02/13 02:56:00;;;;;;;14.67;8.23;;;;;;;1.19;77.67;99773.47;6333896;27;20224;-34
2023/02/13 03:06:10;;;;;;;13.50;8.20;;;;;;;1.19;78.13;99770.84;6335270;27;20224;-35
2023/02/13 03:23:09;;;;;;;9.83;5.80;;;;;;;1.49;78.07;99762.13;6353250;27;20216;-34
2023/02/13 03:26:31;;;;;;;9.07;6.37;;;;;;;1.44;77.70;99770.41;6341730;27;20233;-35
2023/02/13 03:30:10;;;;;;;9.83;6.10;;;;;;;1.46;77.99;99765.00;6321350;27;20250;-35
2023/02/13 03:33:40;;;;;;;9.97;5.70;;;;;;;1.52;77.65;99754.78;6304549;27;20567;-35
2023/02/13 03:40:36;;;;;;;9.53;5.93;;;;;;;1.60;77.40;99754.13;6345965;27;20841;-35
2023/02/13 03:44:04;;;;;;;9.60;5.33;;;;;;;1.60;77.31;99761.19;6353804;27;20557;-35
2023/02/13 03:47:09;;;;;;;7.63;5.70;;;;;;;1.57;77.63;99764.06;6293807;27;20642;-35
2023/02/13 03:50:14;;;;;;;8.57;5.87;;;;;;;1.56;78.09;99763.25;6353297;27;20767;-35
2023/02/13 03:53:17;;;;;;;9.13;6.13;;;;;;;1.63;77.65;99761.75;6351018;27;20319;-34
2023/02/13 03:59:41;;;;;;;5.93;4.30;;;;;;;1.67;77.55;99759.69;6358863;27;20751;-35
2023/02/13 04:03:21;;;;;;;6.13;4.37;;;;;;;1.72;77.32;99755.69;6325231;28;20232;-35
2023/02/13 04:06:33;;;;;;;7.87;5.03;;;;;;;1.71;77.44;99761.06;6338894;27;20225;-35
2023/02/13 04:09:39;;;;;;;7.37;5.10;;;;;;;1.72;77.60;99755.69;6350380;27;20230;-35
2023/02/13 04:12:50;;;;;;;6.80;4.30;;;;;;;1.72;77.35;99762.72;6353604;27;20223;-35
2023/02/13 04:16:17;;;;;;;8.20;4.60;;;;;;;1.69;77.46;99763.84;6355705;27;20237;-35
2023/02/13 04:19:20;;;;;;;6.07;4.37;;;;;;;1.68;77.77;99759.56;6334078;27;20714;-35
2023/02/13 04:22:22;;;;;;;5.83;4.37;;;;;;;1.72;77.58;99750.44;6336104;27;20276;-35
2023/02/13 04:25:24;;;;;;;6.73;3.90;;;;;;;1.80;77.42;99753.22;6352812;27;20615;-35
2023/02/13 04:28:26;;;;;;;4.73;3.47;;;;;;;1.87;77.23;99753.50;6352183;27;20239;-35
2023/02/13 04:31:28;;;;;;;6.47;4.07;;;;;;;1.88;77.40;99751.72;6340116;27;20248;-35
2023/02/13 04:34:30;;;;;;;5.53;4.17;;;;;;;1.91;77.12;99743.56;6351599;27;20342;-34
2023/02/13 04:37:32;;;;;;;4.73;3.80;;;;;;;1.89;76.98;99746.34;6333347;27;20310;-34
2023/02/13 04:40:34;;;;;;;6.97;4.37;;;;;;;1.91;77.25;99740.94;6327251;27;20229;-35
2023/02/13 04:43:36;;;;;;;4.30;3.63;;;;;;;1.93;77.38;99754.78;6352039;27;20239;-35
2023/02/13 04:46:38;;;;;;;5.97;3.67;;;;;;;1.92;77.13;99748.69;6352491;27;20326;-34
2023/02/13 04:49:40;;;;;;;4.13;3.30;;;;;;;1.97;77.24;99748.28;6348703;27;20647;-35
2023/02/13 04:52:42;;;;;;;5.83;3.23;;;;;;;1.94;77.24;99749.38;6329535;28;20242;-35
2023/02/13 04:55:44;;;;;;;4.63;3.10;;;;;;;1.99;77.14;99754.25;6329124;28;20224;-36
2023/02/13 04:58:46;;;;;;;5.73;3.57;;;;;;;2.04;76.87;99750.22;6350253;28;20744;-35
2023/02/13 05:01:48;;;;;;;4.07;2.90;;;;;;;2.09;77.03;99746.38;6351941;28;20235;-35
2023/02/13 05:04:50;;;;;;;5.83;2.97;;;;;;;2.09;76.74;99749.81;6321404;28;20231;-35
2023/02/13 05:07:52;;;;;;;6.20;2.93;;;;;;;2.12;76.69;99753.97;6343538;28;20710;-35
2023/02/13 05:10:54;;;;;;;4.73;2.93;;;;;;;1.95;76.87;99721.31;6340564;28;20786;-34
2023/02/13 05:13:56;;;;;;;4.57;2.70;;;;;;;2.15;76.77;99751.91;6336554;28;20219;-35
2023/02/13 05:16:59;;;;;;;5.10;2.77;;;;;;;2.15;76.77;99749.28;6333977;28;20228;-35
2023/02/13 05:20:01;;;;;;;4.83;3.00;;;;;;;2.06;77.11;99747.47;6334017;28;20326;-35
2023/02/13 05:26:23;;;;;;;3.50;2.60;;;;;;;2.18;76.91;99748.19;6354908;27;20228;-35
2023/02/13 05:29:25;;;;;;;4.00;2.53;;;;;;;2.08;76.66;99726.31;6341272;27;20246;-35
2023/02/13 05:32:27;;;;;;;4.43;2.87;;;;;;;2.20;76.93;99746.22;6350521;27;20227;-35
2023/02/13 05:35:29;;;;;;;4.90;3.00;;;;;;;2.17;76.75;99749.97;6348162;27;20228;-35
2023/02/13 05:38:31;;;;;;;4.07;3.00;;;;;;;2.18;76.73;99750.81;6356342;27;20605;-35
2023/02/13 05:41:33;;;;;;;4.57;2.53;;;;;;;1.79;76.72;99683.25;6356675;27;20228;-35
2023/02/13 05:44:35;;;;;;;3.87;2.50;;;;;;;2.21;76.61;99748.72;6357470;27;20227;-35
2023/02/13 05:47:37;;;;;;;5.30;2.20;;;;;;;2.16;76.91;99750.09;6347096;27;20627;-35
2023/02/13 05:50:39;;;;;;;2.93;2.27;;;;;;;2.19;77.28;99755.09;6355795;27;20757;-35
2023/02/13 05:53:41;;;;;;;2.37;2.17;;;;;;;2.10;77.01;99740.97;6356543;27;20590;-34
2023/02/13 05:56:43;;;;;;;3.37;2.13;;;;;;;2.28;76.66;99756.91;6355780;27;20714;-35
2023/02/13 05:59:45;;;;;;;6.27;3.00;;;;;;;2.23;76.83;99765.22;6355019;27;20433;-34
2023/02/13 06:02:47;;;;;;;4.73;2.13;;;;;;;2.29;77.05;99762.03;6332659;27;20357;-35
2023/02/13 06:05:49;;;;;;;3.80;2.53;;;;;;;2.32;77.08;99769.66;6342321;27;20725;-35
2023/02/13 06:08:51;;;;;;;3.07;2.27;;;;;;;2.30;76.93;99763.66;6357254;27;20358;-35
2023/02/13 06:11:53;;;;;;;2.50;2.00;;;;;;;2.35;76.77;99770.31;6355434;27;20341;-35
2023/02/13 06:14:55;;;;;;;3.77;2.23;;;;;;;2.39;76.64;99769.09;6347948;27;20230;-35
2023/02/13 06:17:57;;;;;;;3.30;2.10;;;;;;;2.40;76.70;99768.94;6356003;27;20264;-35
2023/02/13 06:21:00;;;;;;;2.60;2.10;;;;;;;2.38;76.48;99768.25;6332437;27;20233;-35
2023/02/13 06:24:06;;;;;;;2.97;2.17;;;;;;;2.38;76.54;99770.06;6336540;27;20701;-35
2023/02/13 06:27:08;;;;;;;3.83;2.10;;;;;;;2.43;76.75;99775.75;6346135;27;20217;-35
2023/02/13 06:30:11;;;;;;;2.73;1.83;;;;;;;2.48;76.62;99776.16;6339976;27;20784;-35
2023/02/13 06:33:13;;;;;;;3.87;2.00;;;;;;;2.43;76.41;99773.94;6310440;28;20233;-35
2023/02/13 06:36:15;;;;;;;3.30;2.30;;;;;;;2.46;76.78;99778.06;6322888;28;20641;-35
2023/02/13 06:39:17;;;;;;;5.70;2.10;;;;;;;2.49;76.70;99780.44;6309261;28;20343;-35
2023/02/13 06:42:19;;;;;;;3.30;2.17;;;;;;;2.51;76.64;99778.50;6299225;28;20724;-35
2023/02/13 06:45:21;;;;;;;3.80;2.90;;;;;;;2.53;76.71;99787.09;6330157;28;20236;-35
2023/02/13 06:48:23;;;;;;;3.60;1.87;;;;;;;2.55;76.36;99785.97;6329477;28;20780;-35
2023/02/13 06:51:25;;;;;;;2.70;2.13;;;;;;;2.55;76.65;99779.88;6328782;28;20596;-35
2023/02/13 06:54:28;;;;;;;3.60;2.30;;;;;;;2.58;76.80;99777.81;6290434;28;20310;-35
2023/02/13 06:57:48;;;;;;;3.37;2.00;;;;;;;2.65;76.82;99774.63;6316212;28;20844;-35
2023/02/13 07:00:51;;;;;;;2.53;1.80;;;;;;;2.67;76.58;99785.84;6329611;28;20251;-35
2023/02/13 07:03:53;;;;;;;3.27;2.13;;;;;;;2.69;76.56;99776.84;6323331;28;20570;-35
2023/02/13 07:06:56;;;;;;;4.20;2.20;;;;;;;2.73;76.42;99786.13;6294708;28;20637;-35
2023/02/13 07:09:59;;;;;;;3.00;2.00;;;;;;;2.80;76.41;99787.19;6325196;28;20336;-35
2023/02/13 07:13:01;;;;;;;4.77;2.30;;;;;;;2.83;76.15;99786.09;6278070;28;20270;-36
2023/02/13 07:16:07;;;;;;;3.53;2.07;;;;;;;2.84;76.33;99788.59;6325839;28;20239;-35
2023/02/13 07:19:09;;;;;;;2.20;2.00;;;;;;;2.89;76.33;99788.16;6323651;28;20363;-35
2023/02/13 07:22:11;;;;;;;3.13;2.30;;;;;;;2.93;76.14;99794.81;6321138;28;20244;-35
2023/02/13 07:25:14;;;;;;;4.60;2.07;;;;;;;2.99;75.96;99796.88;6319898;28;20776;-35
2023/02/13 07:28:16;;;;;;;2.83;2.43;;;;;;;2.94;76.35;99804.38;6305382;28;20600;-35
2023/02/13 07:31:18;;;;;;;3.90;2.20;;;;;;;3.02;76.10;99801.88;6343560;27;20238;-35
2023/02/13 07:34:21;;;;;;;3.23;2.10;;;;;;;3.09;76.13;99797.69;6336865;27;20607;-35
2023/02/13 07:37:23;;;;;;;4.03;1.80;;;;;;;3.16;75.95;99805.06;6353228;27;20228;-35
2023/02/13 07:40:25;;;;;;;2.87;2.00;;;;;;;3.21;75.90;99806.28;6334162;27;20257;-35
2023/02/13 07:43:28;;;;;;;4.23;1.97;;;;;;;3.23;75.66;99804.31;6324187;28;20240;-35
2023/02/13 07:46:30;;;;;;;4.57;2.30;;;;;;;3.33;75.91;99806.94;6330058;27;20704;-35
2023/02/13 07:49:32;;;;;;;2.73;1.93;;;;;;;3.39;75.28;99808.16;6344252;27;20236;-35
2023/02/13 07:52:36;;;;;;;4.20;2.43;;;;;;;3.34;75.62;99812.03;6352959;27;20601;-35
2023/02/13 07:55:38;;;;;;;2.37;2.17;;;;;;;3.34;75.72;99809.41;6353101;27;20240;-35
2023/02/13 07:58:40;;;;;;;3.30;2.40;;;;;;;3.41;75.45;99806.22;6351926;27;20452;-35
2023/02/13 08:01:42;;;;;;;4.07;2.27;;;;;;;3.48;75.25;99809.94;6352450;27;20311;-35
2023/02/13 08:04:47;;;;;;;3.70;2.43;;;;;;;3.43;74.94;99794.56;6326650;28;20232;-35
2023/02/13 08:07:49;;;;;;;3.80;2.20;;;;;;;3.70;74.81;99816.66;6325329;28;20739;-36
2023/02/13 08:14:11;;;;;;;2.47;1.97;;;;;;;3.84;74.42;99809.13;6353578;27;20584;-36
2023/02/13 08:17:13;;;;;;;2.97;2.40;;;;;;;3.89;74.27;99813.91;6347930;27;20283;-36
2023/02/13 08:20:16;;;;;;;3.50;1.90;;;;;;;3.90;74.50;99815.59;6341164;27;20606;-36
2023/02/13 08:23:18;;;;;;;2.80;1.90;;;;;;;3.99;74.31;99812.09;6336648;27;20236;-36
2023/02/13 08:26:20;;;;;;;3.40;2.30;;;;;;;4.00;73.97;99813.75;6351206;27;20711;-36
2023/02/13 08:29:22;;;;;;;3.60;2.17;;;;;;;4.09;74.24;99817.31;6352327;27;20316;-35
2023/02/13 08:32:25;;;;;;;4.00;2.47;;;;;;;4.14;73.80;99813.25;6351947;27;20228;-38
2023/02/13 08:35:28;;;;;;;3.70;2.27;;;;;;;4.18;73.85;99811.13;6343002;27;20222;-36
2023/02/13 08:38:32;;;;;;;3.37;2.40;;;;;;;4.21;73.74;99815.28;6329015;27;20256;-35
2023/02/13 08:41:34;;;;;;;3.63;2.33;;;;;;;4.22;73.75;99814.31;6344216;27;20353;-35
2023/02/13 08:44:39;;;;;;;4.30;2.10;;;;;;;4.03;73.66;99775.69;6350489;27;20228;-35
2023/02/13 08:47:41;;;;;;;3.23;2.30;;;;;;;4.33;73.51;99814.91;6333163;27;20228;-35
2023/02/13 08:50:43;;;;;;;2.73;2.23;;;;;;;4.42;73.50;99810.56;6340920;27;20239;-35
2023/02/13 08:53:45;;;;;;;4.33;2.37;;;;;;;4.48;73.31;99803.84;6350288;27;20892;-35
2023/02/13 08:56:47;;;;;;;3.23;2.40;;;;;;;4.51;73.25;99816.75;6325662;28;20232;-35
2023/02/13 08:59:49;;;;;;;3.03;2.40;;;;;;;4.54;73.22;99805.91;6351326;27;20246;-35
2023/02/13 09:02:51;;;;;;;5.00;3.17;;;;;;;4.61;72.83;99809.59;6348873;28;20450;-35
2023/02/13 09:05:58;;;;;;;3.40;2.53;;;;;;;4.72;72.86;99811.16;6346270;28;20239;-35
2023/02/13 09:09:00;;;;;;;3.73;3.00;;;;;;;4.70;72.70;99813.97;6351717;28;20834;-35
2023/02/13 09:12:02;;;;;;;5.27;3.83;;;;;;;4.77;72.22;99816.81;6330689;28;20324;-35
2023/02/13 09:15:05;;;;;;;5.13;3.30;;;;;;;4.98;72.01;99822.63;6320671;28;20723;-35
2023/02/13 09:18:07;;;;;;;7.10;4.00;;;;;;;5.05;71.21;99813.09;6344557;28;20210;-35
2023/02/13 09:21:11;;;;;;;7.53;3.80;;;;;;;5.19;70.99;99817.00;6352163;28;20229;-36
2023/02/13 09:24:13;;;;;;;4.73;3.50;;;;;;;5.27;70.72;99811.78;6351049;28;20258;-35
2023/02/13 09:27:15;;;;;;;4.23;3.20;;;;;;;5.36;70.07;99817.91;6351123;28;20294;-35
2023/02/13 09:30:22;;;;;;;3.80;3.07;;;;;;;5.44;70.05;99810.06;6348203;28;20729;-35
2023/02/13 09:33:25;;;;;;;4.03;3.40;;;;;;;5.52;69.80;99811.94;6347923;28;20693;-35
2023/02/13 09:36:27;;;;;;;5.00;3.30;;;;;;;5.58;69.19;99835.91;6351483;28;20637;-35
2023/02/13 09:39:29;;;;;;;4.47;3.60;;;;;;;5.67;68.82;99821.75;6351607;28;20228;-36
2023/02/13 09:42:35;;;;;;;4.47;3.20;;;;;;;5.79;68.46;99826.75;6351824;28;20770;-35
2023/02/13 09:45:38;;;;;;;5.43;3.53;;;;;;;5.79;67.87;99830.22;6345144;28;20303;-35
2023/02/13 09:48:44;;;;;;;4.00;3.13;;;;;;;5.81;67.81;99828.28;6327291;28;20236;-35
2023/02/13 09:51:53;;;;;;;3.57;3.10;;;;;;;5.79;67.58;99829.41;6332381;28;20231;-35
2023/02/13 09:54:55;;;;;;;5.73;3.50;;;;;;;5.79;67.47;99830.22;6350846;28;20308;-35
2023/02/13 09:58:02;;;;;;;4.50;3.30;;;;;;;5.77;67.78;99832.22;6349967;28;20856;-35
2023/02/13 10:01:29;;;;;;;4.47;3.37;;;;;;;5.80;67.81;99833.72;6311816;28;20235;-36
2023/02/13 10:04:57;;;;;;;4.57;3.20;;;;;;;5.60;67.59;99804.03;6322103;28;20246;-35
2023/02/13 10:08:10;;;;;;;4.03;3.13;;;;;;;5.80;67.53;99831.06;6327507;28;20594;-35
2023/02/13 10:11:35;;;;;;;5.20;3.53;;;;;;;5.87;67.45;99840.88;6339761;27;20812;-35
2023/02/13 10:14:36;;;;;;;4.77;4.13;;;;;;;5.85;67.42;99834.06;6340057;27;20259;-35
2023/02/13 10:17:43;;;;;;;4.70;3.37;;;;;;;5.84;67.83;99838.53;6344745;27;20234;-36
2023/02/13 10:20:55;;;;;;;5.17;3.10;;;;;;;5.89;67.68;99846.81;6346652;27;20242;-35
2023/02/13 10:24:05;;;;;;;4.63;3.70;;;;;;;6.00;67.59;99842.25;6326125;27;20238;-35
2023/02/13 10:27:17;;;;;;;4.57;3.80;;;;;;;5.97;67.38;99837.31;6353507;27;20656;-35
2023/02/13 10:30:26;;;;;;;8.47;5.30;;;;;;;5.91;67.31;99844.00;6346506;27;20231;-35
2023/02/13 10:33:39;;;;;;;6.77;4.87;;;;;;;5.80;67.96;99841.63;6353995;27;20839;-36
2023/02/13 10:36:46;;;;;;;7.50;4.70;;;;;;;5.75;67.79;99836.81;6355650;27;20647;-36
2023/02/13 10:39:50;;;;;;;5.57;3.73;;;;;;;5.83;67.91;99838.69;6329868;27;20296;-35
2023/02/13 10:43:07;;;;;;;6.60;4.10;;;;;;;5.89;67.59;99825.66;6337202;27;20244;-35
2023/02/13 10:46:45;;;;;;;6.13;3.93;;;;;;;5.94;67.23;99819.91;6351223;27;20237;-36
2023/02/13 10:49:47;;;;;;;4.80;4.30;;;;;;;6.00;67.58;99821.91;6350428;27;20244;-35
2023/02/13 10:52:59;;;;;;;5.77;4.43;;;;;;;5.90;67.65;99818.53;6354830;27;20284;-35
2023/02/13 10:56:40;;;;;;;8.00;5.00;;;;;;;5.70;67.92;99787.03;6338912;27;20673;-35
2023/02/13 11:00:12;;;;;;;7.37;4.63;;;;;;;5.97;67.74;99806.38;6202889;28;20236;-36
2023/02/13 11:03:23;;;;;;;4.83;4.17;;;;;;;6.10;67.32;99804.09;6353372;27;20224;-36
2023/02/13 11:06:25;;;;;;;5.10;3.60;;;;;;;6.16;66.74;99802.66;6346217;27;20226;-36
2023/02/13 11:09:32;;;;;;;6.33;3.40;;;;;;;6.08;66.17;99792.84;6351565;27;20581;-35
2023/02/13 11:12:34;;;;;;;3.37;2.80;;;;;;;6.23;65.88;99794.88;6344245;27;20314;-35
2023/02/13 11:15:36;;;;;;;3.97;2.97;;;;;;;6.30;65.50;99794.06;6336433;27;20226;-35
2023/02/13 11:18:43;;;;;;;3.33;3.03;;;;;;;6.32;64.64;99788.63;6353587;27;20226;-36
2023/02/13 11:21:47;;;;;;;3.80;2.97;;;;;;;6.57;64.74;99794.78;6353317;27;20235;-35
2023/02/13 11:24:52;;;;;;;3.17;2.73;;;;;;;6.59;63.74;99769.78;6340544;27;20283;-35
2023/02/13 11:28:09;;;;;;;3.13;2.80;;;;;;;6.76;63.70;99789.16;6352337;27;20231;-35
2023/02/13 11:31:20;;;;;;;3.57;3.03;;;;;;;6.78;62.60;99789.00;6333144;27;20240;-36
2023/02/13 11:34:25;;;;;;;3.37;3.07;;;;;;;6.72;62.01;99786.00;6350231;27;20228;-36
2023/02/13 11:37:30;;;;;;;3.67;3.07;;;;;;;6.81;62.07;99786.84;6349899;27;20235;-35
2023/02/13 11:40:32;;;;;;;3.20;2.93;;;;;;;6.90;61.34;99780.56;6342946;27;20257;-36
2023/02/13 11:43:47;;;;;;;4.23;3.60;;;;;;;7.05;61.07;99785.19;6353372;27;20653;-35
2023/02/13 11:46:52;;;;;;;3.17;2.87;;;;;;;7.14;60.59;99779.72;6345181;27;20375;-35
2023/02/13 11:49:54;;;;;;;4.30;2.53;;;;;;;7.27;60.24;99781.00;6332361;27;20273;-36
2023/02/13 11:53:17;;;;;;;3.50;3.20;;;;;;;7.11;60.01;99776.56;6340175;27;20235;-35
2023/02/13 11:56:19;;;;;;;3.50;3.20;;;;;;;7.02;60.73;99793.47;6335841;27;20805;-35
2023/02/13 11:59:24;;;;;;;3.70;3.30;;;;;;;7.13;59.90;99783.34;6351341;27;20230;-36
2023/02/13 12:02:44;;;;;;;3.83;3.30;;;;;;;6.95;61.26;99780.88;6332319;27;20237;-35
2023/02/13 12:06:17;;;;;;;4.83;3.40;;;;;;;6.92;60.66;99783.03;6329273;27;20217;-35
2023/02/13 12:09:19;;;;;;;3.60;3.30;;;;;;;7.03;60.49;99773.91;6247031;28;20793;-35
2023/02/13 12:12:43;;;;;;;3.77;3.03;;;;;;;6.95;60.23;99753.56;6249000;28;20744;-35
2023/02/13 12:15:48;;;;;;;4.70;3.47;;;;;;;6.95;60.35;99769.47;6248564;28;20372;-35
2023/02/13 12:18:54;;;;;;;4.53;3.87;;;;;;;6.86;60.34;99775.75;6248789;28;20231;-35
2023/02/13 12:22:08;;;;;;;3.83;3.33;;;;;;;6.72;60.32;99770.13;6217626;28;20326;-35
2023/02/13 12:25:24;;;;;;;3.80;3.20;;;;;;;6.59;60.25;99761.00;6245678;28;20834;-36
2023/02/13 12:28:50;;;;;;;4.67;3.20;;;;;;;6.62;60.03;99750.91;6256338;28;20226;-35
2023/02/13 12:32:17;;;;;;;4.30;3.57;;;;;;;6.62;59.85;99748.28;6257942;28;20741;-35
2023/02/13 12:35:41;;;;;;;3.67;3.23;;;;;;;6.78;59.54;99741.31;6269100;28;20737;-35
2023/02/13 12:39:17;;;;;;;4.30;3.90;;;;;;;6.66;59.67;99738.19;6264792;28;20815;-35
2023/02/13 12:42:28;;;;;;;7.03;3.37;;;;;;;6.65;59.70;99731.22;6235157;28;20760;-35
2023/02/13 12:45:41;;;;;;;3.90;3.50;;;;;;;6.56;59.00;99717.16;6285838;28;20705;-35
2023/02/13 12:49:05;;;;;;;4.77;3.90;;;;;;;6.82;59.26;99729.41;6325365;28;20239;-35
2023/02/13 12:52:28;;;;;;;3.83;3.40;;;;;;;6.67;59.56;99734.53;6334276;27;20733;-36
2023/02/13 12:55:34;;;;;;;3.63;3.30;;;;;;;6.72;58.80;99732.22;6346480;27;20232;-35
2023/02/13 12:58:54;;;;;;;5.43;3.77;;;;;;;6.72;59.06;99730.38;6308906;28;20232;-35
2023/02/13 13:01:58;;;;;;;4.40;3.30;;;;;;;6.92;59.02;99730.88;6327755;28;20647;-35
2023/02/13 13:05:30;;;;;;;4.00;3.53;;;;;;;7.03;57.98;99721.75;6327494;28;20229;-35
2023/02/13 13:08:44;;;;;;;4.40;3.20;;;;;;;7.02;58.40;99725.38;6353089;28;20754;-35
2023/02/13 13:12:21;;;;;;;5.13;3.07;;;;;;;7.16;57.70;99722.06;6352475;28;20266;-35
2023/02/13 13:15:37;;;;;;;3.30;2.90;;;;;;;7.04;57.50;99701.38;6301702;28;20233;-35
2023/02/13 13:18:52;;;;;;;3.00;2.70;;;;;;;7.26;57.07;99732.47;6327503;28;20237;-35
2023/02/13 13:21:57;;;;;;;3.00;2.73;;;;;;;7.32;57.06;99733.59;6300249;28;20222;-36
2023/02/13 13:25:07;;;;;;;3.60;2.77;;;;;;;7.36;56.99;99734.94;6349462;28;20622;-35
2023/02/13 13:28:18;;;;;;;3.50;3.00;;;;;;;7.30;56.98;99736.44;6351611;28;20523;-35
2023/02/13 13:31:24;;;;;;;3.00;2.70;;;;;;;7.28;56.80;99738.41;6323938;28;20270;-35
2023/02/13 13:34:30;;;;;;;3.93;2.97;;;;;;;7.22;56.86;99736.44;6329234;28;20236;-36
2023/02/13 13:37:44;;;;;;;3.37;2.90;;;;;;;7.19;56.75;99729.69;6320909;28;20319;-36
2023/02/13 13:41:02;;;;;;;3.27;2.87;;;;;;;7.19;56.68;99742.06;6340945;28;20235;-35
2023/02/13 13:44:28;;;;;;;3.63;3.03;;;;;;;7.24;56.61;99731.78;6336113;27;20596;-36
2023/02/13 13:47:55;;;;;;;4.10;3.27;;;;;;;7.22;56.95;99731.16;6356129;27;20260;-36
2023/02/13 13:50:58;;;;;;;3.33;2.97;;;;;;;7.26;56.86;99731.63;6343000;27;20231;-35
2023/02/13 13:54:00;;;;;;;3.63;3.23;;;;;;;7.24;56.78;99729.13;6355551;27;20424;-35
2023/02/13 13:57:02;;;;;;;3.83;3.00;;;;;;;7.23;56.80;99730.13;6356643;27;20736;-36
2023/02/13 14:00:07;;;;;;;4.30;3.43;;;;;;;7.21;57.32;99732.16;6356450;27;20206;-35
2023/02/13 14:03:35;;;;;;;3.67;3.00;;;;;;;7.26;57.15;99729.81;6348889;27;20318;-35
2023/02/13 14:06:43;;;;;;;3.47;3.17;;;;;;;7.35;56.65;99714.72;6317903;28;20225;-35
2023/02/13 14:09:45;;;;;;;4.23;3.23;;;;;;;7.41;56.71;99714.84;6337560;27;20576;-35
2023/02/13 14:12:54;;;;;;;3.57;2.73;;;;;;;7.41;56.25;99712.19;6355172;27;20323;-36
2023/02/13 14:15:56;;;;;;;4.60;3.10;;;;;;;7.23;55.99;99688.56;6355461;27;20232;-35
2023/02/13 14:18:58;;;;;;;2.93;2.63;;;;;;;7.30;55.88;99723.19;6348655;27;20232;-36
2023/02/13 14:22:33;;;;;;;3.10;2.80;;;;;;;7.31;56.05;99713.41;6343074;27;20568;-36
2023/02/13 14:25:36;;;;;;;3.47;2.83;;;;;;;7.35;56.31;99712.88;6332505;27;20225;-35
2023/02/13 14:28:48;;;;;;;2.63;2.43;;;;;;;7.34;56.35;99716.53;6353081;27;20236;-35
2023/02/13 14:32:12;;;;;;;3.20;2.90;;;;;;;7.24;55.70;99715.88;6348594;27;20225;-36
2023/02/13 14:35:23;;;;;;;4.27;3.17;;;;;;;7.22;55.33;99720.53;6333724;27;20315;-36
2023/02/13 14:38:26;;;;;;;3.50;3.10;;;;;;;7.03;55.88;99719.09;6352171;27;20361;-35
2023/02/13 14:41:45;;;;;;;3.03;2.60;;;;;;;7.08;55.85;99724.72;6330503;27;20736;-35
2023/02/13 14:44:52;;;;;;;3.17;2.63;;;;;;;7.13;55.79;99718.91;6351124;27;20222;-35
2023/02/13 14:47:56;;;;;;;3.50;3.00;;;;;;;7.04;55.96;99715.44;6356069;27;20228;-35
2023/02/13 14:50:59;;;;;;;3.50;3.07;;;;;;;7.06;55.77;99712.63;6354680;27;20594;-35
2023/02/13 14:54:24;;;;;;;3.00;2.70;;;;;;;7.05;55.79;99718.94;6354310;27;20772;-35
2023/02/13 14:57:50;;;;;;;3.10;2.80;;;;;;;7.08;55.87;99718.59;6299987;28;20303;-36
2023/02/13 15:00:59;;;;;;;2.67;2.20;;;;;;;7.14;55.84;99709.94;6344237;27;20249;-35
2023/02/13 15:04:24;;;;;;;2.80;2.37;;;;;;;7.00;55.89;99718.63;6355191;27;20236;-35
2023/02/13 15:07:30;;;;;;;3.03;2.47;;;;;;;6.97;55.98;99710.00;6354038;27;20719;-35
2023/02/13 15:10:41;;;;;;;2.57;2.37;;;;;;;6.96;56.42;99705.69;6342009;27;20261;-35
2023/02/13 15:13:43;;;;;;;3.03;2.50;;;;;;;6.95;56.05;99709.34;6344014;27;20263;-36
2023/02/13 15:17:08;;;;;;;2.80;2.60;;;;;;;6.96;55.63;99704.88;6336804;27;20220;-35
2023/02/13 15:20:23;;;;;;;2.80;2.33;;;;;;;6.83;55.31;99678.06;6353211;27;20224;-36
2023/02/13 15:23:29;;;;;;;2.40;2.00;;;;;;;6.98;55.65;99695.75;6353326;27;20220;-35
2023/02/13 15:26:31;;;;;;;2.97;2.30;;;;;;;6.95;56.12;99693.44;6355036;27;20919;-36
2023/02/13 15:29:34;;;;;;;2.27;2.07;;;;;;;6.94;56.61;99696.25;6337427;27;20255;-35
2023/02/13 15:33:04;;;;;;;2.37;2.17;;;;;;;6.86;56.48;99691.81;6326896;28;20790;-35